Harriman, New York
Current Conditions -  °F | °C
As of 6:45 PM on Saturday 20 Dec 2014 (Local Time) from KSWF Reporting Station
Overcast Overcast  
Wind Chill: 23°   Ceiling: 2000
Heat Index: 28°   Visibility: 10mi
Dew Point: 23°   Wind: 5mph
Humidity: 80%   Direction: NA
Pressure: 30.29"   Gusts: NA
Location:  41.31°N, 74.14°W
Report Text: KSWF 202345Z VRB04KT 10SM OVC020 M02/M05 A3029
Loading
Personal Weather Stations






























Interactive Weather Map New forecast layout! Learn more

10-Day Weather Forecast

Advertisements
Track Severe Weather on mobile